sensor_id;sensor_type;location;lat;lon;timestamp;pressure;altitude;pressure_sealevel;temperature;humidity
74561;BME280;62979;55.720;37.606;2023-03-14T00:00:07;99482.09;;;-1.21;56.90
74561;BME280;62979;55.720;37.606;2023-03-14T00:02:36;99468.38;;;-1.23;56.60
74561;BME280;62979;55.720;37.606;2023-03-14T00:05:05;99465.75;;;-1.26;56.82
74561;BME280;62979;55.720;37.606;2023-03-14T00:07:33;99469.13;;;-1.27;56.73
74561;BME280;62979;55.720;37.606;2023-03-14T00:10:02;99452.13;;;-1.22;56.71
74561;BME280;62979;55.720;37.606;2023-03-14T00:12:31;99447.06;;;-1.19;56.90
74561;BME280;62979;55.720;37.606;2023-03-14T00:14:58;99440.06;;;-1.28;56.69
74561;BME280;62979;55.720;37.606;2023-03-14T00:17:28;99423.91;;;-1.22;56.97
74561;BME280;62979;55.720;37.606;2023-03-14T00:19:56;99426.38;;;-1.27;56.86
74561;BME280;62979;55.720;37.606;2023-03-14T00:22:30;99415.25;;;-1.29;56.93
74561;BME280;62979;55.720;37.606;2023-03-14T00:24:57;99413.38;;;-1.38;57.58
74561;BME280;62979;55.720;37.606;2023-03-14T00:27:24;99403.00;;;-1.44;57.65
74561;BME280;62979;55.720;37.606;2023-03-14T00:29:51;99374.41;;;-1.64;57.50
74561;BME280;62979;55.720;37.606;2023-03-14T00:32:17;99389.97;;;-1.55;57.73
74561;BME280;62979;55.720;37.606;2023-03-14T00:34:44;99401.97;;;-1.54;58.14
74561;BME280;62979;55.720;37.606;2023-03-14T00:37:11;99388.25;;;-1.54;57.80
74561;BME280;62979;55.720;37.606;2023-03-14T00:39:41;99398.50;;;-1.54;58.23
74561;BME280;62979;55.720;37.606;2023-03-14T00:42:08;99385.63;;;-1.57;58.10
74561;BME280;62979;55.720;37.606;2023-03-14T00:44:35;99391.75;;;-1.51;58.33
74561;BME280;62979;55.720;37.606;2023-03-14T00:47:02;99377.84;;;-1.62;58.49
74561;BME280;62979;55.720;37.606;2023-03-14T00:49:29;99402.88;;;-1.50;58.35
74561;BME280;62979;55.720;37.606;2023-03-14T00:51:56;99396.25;;;-1.39;58.81
74561;BME280;62979;55.720;37.606;2023-03-14T00:54:23;99382.53;;;-1.41;58.67
74561;BME280;62979;55.720;37.606;2023-03-14T00:56:52;99382.59;;;-1.38;58.84
74561;BME280;62979;55.720;37.606;2023-03-14T00:59:18;99371.34;;;-1.44;59.19
74561;BME280;62979;55.720;37.606;2023-03-14T01:01:45;99367.81;;;-1.51;59.55
74561;BME280;62979;55.720;37.606;2023-03-14T01:04:12;99360.94;;;-1.52;60.18
74561;BME280;62979;55.720;37.606;2023-03-14T01:06:39;99372.13;;;-1.48;60.31
74561;BME280;62979;55.720;37.606;2023-03-14T01:09:06;99368.63;;;-1.52;60.59
74561;BME280;62979;55.720;37.606;2023-03-14T01:11:34;99370.44;;;-1.46;60.72
74561;BME280;62979;55.720;37.606;2023-03-14T01:14:03;99362.91;;;-1.37;61.04
74561;BME280;62979;55.720;37.606;2023-03-14T01:16:33;99368.88;;;-1.40;61.25
74561;BME280;62979;55.720;37.606;2023-03-14T01:19:01;99375.88;;;-1.30;61.58
74561;BME280;62979;55.720;37.606;2023-03-14T01:21:30;99367.47;;;-1.22;61.64
74561;BME280;62979;55.720;37.606;2023-03-14T01:24:00;99360.69;;;-1.19;62.14
74561;BME280;62979;55.720;37.606;2023-03-14T01:26:31;99349.59;;;-1.18;62.43
74561;BME280;62979;55.720;37.606;2023-03-14T01:28:59;99337.56;;;-1.20;63.29
74561;BME280;62979;55.720;37.606;2023-03-14T01:31:28;99319.56;;;-1.23;64.03
74561;BME280;62979;55.720;37.606;2023-03-14T01:33:55;99304.66;;;-1.46;65.46
74561;BME280;62979;55.720;37.606;2023-03-14T01:36:22;99315.13;;;-1.32;65.16
74561;BME280;62979;55.720;37.606;2023-03-14T01:38:48;99294.59;;;-1.34;65.68
74561;BME280;62979;55.720;37.606;2023-03-14T01:41:17;99283.50;;;-1.33;66.41
74561;BME280;62979;55.720;37.606;2023-03-14T01:43:45;99308.38;;;-1.27;66.82
74561;BME280;62979;55.720;37.606;2023-03-14T01:46:23;99299.84;;;-1.26;66.80
74561;BME280;62979;55.720;37.606;2023-03-14T01:49:04;99290.44;;;-1.25;67.11
74561;BME280;62979;55.720;37.606;2023-03-14T01:51:42;99282.03;;;-1.18;67.59
74561;BME280;62979;55.720;37.606;2023-03-14T01:54:17;99257.06;;;-1.27;68.40
74561;BME280;62979;55.720;37.606;2023-03-14T01:56:50;99270.81;;;-1.23;68.69
74561;BME280;62979;55.720;37.606;2023-03-14T01:59:22;99282.81;;;-1.22;68.81
74561;BME280;62979;55.720;37.606;2023-03-14T02:01:51;99254.50;;;-1.28;69.21
74561;BME280;62979;55.720;37.606;2023-03-14T02:04:22;99249.38;;;-1.27;69.56
74561;BME280;62979;55.720;37.606;2023-03-14T02:06:56;99258.06;;;-1.17;69.95
74561;BME280;62979;55.720;37.606;2023-03-14T02:09:30;99230.66;;;-1.21;70.02
74561;BME280;62979;55.720;37.606;2023-03-14T02:11:57;99243.66;;;-1.12;70.16
74561;BME280;62979;55.720;37.606;2023-03-14T02:14:30;99230.66;;;-1.21;70.34
74561;BME280;62979;55.720;37.606;2023-03-14T02:17:02;99237.66;;;-1.11;70.35
74561;BME280;62979;55.720;37.606;2023-03-14T02:19:43;99223.97;;;-1.10;70.13
74561;BME280;62979;55.720;37.606;2023-03-14T02:22:23;99209.44;;;-1.11;71.40
74561;BME280;62979;55.720;37.606;2023-03-14T02:24:57;99189.63;;;-1.21;70.80
74561;BME280;62979;55.720;37.606;2023-03-14T02:27:34;99222.31;;;-1.08;71.35
74561;BME280;62979;55.720;37.606;2023-03-14T02:30:04;99216.34;;;-1.07;71.21
74561;BME280;62979;55.720;37.606;2023-03-14T02:32:37;99204.28;;;-1.13;72.05
74561;BME280;62979;55.720;37.606;2023-03-14T02:35:10;99190.69;;;-1.05;72.00
74561;BME280;62979;55.720;37.606;2023-03-14T02:37:41;99160.69;;;-1.11;72.36
74561;BME280;62979;55.720;37.606;2023-03-14T02:40:12;99162.50;;;-1.04;72.43
74561;BME280;62979;55.720;37.606;2023-03-14T02:42:40;99163.34;;;-1.03;72.49
74561;BME280;62979;55.720;37.606;2023-03-14T02:45:43;99180.44;;;-1.07;73.19
74561;BME280;62979;55.720;37.606;2023-03-14T02:48:15;99161.47;;;-1.15;74.56
74561;BME280;62979;55.720;37.606;2023-03-14T02:50:47;99140.94;;;-1.17;76.16
74561;BME280;62979;55.720;37.606;2023-03-14T02:53:17;99157.22;;;-1.13;76.01
74561;BME280;62979;55.720;37.606;2023-03-14T02:55:48;99147.09;;;-1.04;75.81
74561;BME280;62979;55.720;37.606;2023-03-14T02:58:17;99137.66;;;-1.06;74.39
74561;BME280;62979;55.720;37.606;2023-03-14T03:00:46;99153.19;;;-0.96;74.14
74561;BME280;62979;55.720;37.606;2023-03-14T03:03:13;99152.38;;;-0.92;73.99
74561;BME280;62979;55.720;37.606;2023-03-14T03:05:41;99158.41;;;-0.90;73.61
74561;BME280;62979;55.720;37.606;2023-03-14T03:08:09;99146.50;;;-0.83;73.45
74561;BME280;62979;55.720;37.606;2023-03-14T03:10:36;99156.00;;;-0.77;73.64
74561;BME280;62979;55.720;37.606;2023-03-14T03:13:03;99150.03;;;-0.73;73.13
74561;BME280;62979;55.720;37.606;2023-03-14T03:15:32;99132.94;;;-0.71;73.64
74561;BME280;62979;55.720;37.606;2023-03-14T03:17:59;99129.53;;;-0.72;73.66
74561;BME280;62979;55.720;37.606;2023-03-14T03:20:26;99130.38;;;-0.71;73.64
74561;BME280;62979;55.720;37.606;2023-03-14T03:22:53;99137.31;;;-0.64;74.14
74561;BME280;62979;55.720;37.606;2023-03-14T03:25:20;99146.69;;;-0.66;74.15
74561;BME280;62979;55.720;37.606;2023-03-14T03:27:46;99126.22;;;-0.61;74.13
74561;BME280;62979;55.720;37.606;2023-03-14T03:30:14;99110.06;;;-0.53;73.96
74561;BME280;62979;55.720;37.606;2023-03-14T03:32:43;99104.00;;;-0.58;74.12
74561;BME280;62979;55.720;37.606;2023-03-14T03:35:10;99105.78;;;-0.52;73.93
74561;BME280;62979;55.720;37.606;2023-03-14T03:37:37;99082.59;;;-0.60;73.93
74561;BME280;62979;55.720;37.606;2023-03-14T03:40:05;99080.91;;;-0.55;74.43
74561;BME280;62979;55.720;37.606;2023-03-14T03:42:34;99101.66;;;-0.36;74.15
74561;BME280;62979;55.720;37.606;2023-03-14T03:45:03;99096.59;;;-0.29;74.17
74561;BME280;62979;55.720;37.606;2023-03-14T03:47:31;99083.75;;;-0.27;73.98
74561;BME280;62979;55.720;37.606;2023-03-14T03:49:59;99094.91;;;-0.27;73.73
74561;BME280;62979;55.720;37.606;2023-03-14T03:52:26;99083.75;;;-0.27;74.03
74561;BME280;62979;55.720;37.606;2023-03-14T03:54:53;99052.09;;;-0.26;74.81
74561;BME280;62979;55.720;37.606;2023-03-14T03:57:20;99075.19;;;-0.28;74.41
74561;BME280;62979;55.720;37.606;2023-03-14T03:59:47;99070.91;;;-0.27;74.72
74561;BME280;62979;55.720;37.606;2023-03-14T04:02:14;99077.88;;;-0.14;74.81
74561;BME280;62979;55.720;37.606;2023-03-14T04:04:41;99065.91;;;-0.12;74.52
74561;BME280;62979;55.720;37.606;2023-03-14T04:07:09;99064.28;;;-0.01;74.93
74561;BME280;62979;55.720;37.606;2023-03-14T04:09:39;99047.91;;;-0.10;74.63
74561;BME280;62979;55.720;37.606;2023-03-14T04:12:06;99053.13;;;-0.01;74.67
74561;BME280;62979;55.720;37.606;2023-03-14T04:14:33;99037.69;;;-0.04;74.87
74561;BME280;62979;55.720;37.606;2023-03-14T04:16:59;99046.34;;;0.06;74.87
74561;BME280;62979;55.720;37.606;2023-03-14T04:19:26;99055.78;;;0.10;75.32
74561;BME280;62979;55.720;37.606;2023-03-14T04:21:53;99053.25;;;0.14;75.26
74561;BME280;62979;55.720;37.606;2023-03-14T04:24:22;99060.09;;;0.17;75.49
74561;BME280;62979;55.720;37.606;2023-03-14T04:26:48;99034.38;;;0.11;75.49
74561;BME280;62979;55.720;37.606;2023-03-14T04:29:15;99029.31;;;0.23;75.27
74561;BME280;62979;55.720;37.606;2023-03-14T04:31:43;99023.34;;;0.27;75.32
74561;BME280;62979;55.720;37.606;2023-03-14T04:34:10;99043.06;;;0.28;75.10
74561;BME280;62979;55.720;37.606;2023-03-14T04:36:37;99054.25;;;0.38;74.71
74561;BME280;62979;55.720;37.606;2023-03-14T04:39:03;99024.25;;;0.38;74.99
74561;BME280;62979;55.720;37.606;2023-03-14T04:41:32;99021.72;;;0.48;74.68
74561;BME280;62979;55.720;37.606;2023-03-14T04:43:58;99012.31;;;0.51;75.19
74561;BME280;62979;55.720;37.606;2023-03-14T04:46:25;98990.91;;;0.57;74.86
74561;BME280;62979;55.720;37.606;2023-03-14T04:48:52;99002.06;;;0.60;74.93
74561;BME280;62979;55.720;37.606;2023-03-14T04:51:21;99009.78;;;0.59;74.66
74561;BME280;62979;55.720;37.606;2023-03-14T04:53:52;98995.22;;;0.62;75.09
74561;BME280;62979;55.720;37.606;2023-03-14T04:56:20;98990.97;;;0.69;74.85
74561;BME280;62979;55.720;37.606;2023-03-14T04:58:49;98993.50;;;0.64;75.23
74561;BME280;62979;55.720;37.606;2023-03-14T05:01:16;98989.25;;;0.74;75.46
74561;BME280;62979;55.720;37.606;2023-03-14T05:03:43;98971.25;;;0.71;75.50
74561;BME280;62979;55.720;37.606;2023-03-14T05:06:10;98978.09;;;0.71;75.61
74561;BME280;62979;55.720;37.606;2023-03-14T05:08:36;98966.97;;;0.73;75.78
74561;BME280;62979;55.720;37.606;2023-03-14T05:11:04;98973.00;;;0.81;75.42
74561;BME280;62979;55.720;37.606;2023-03-14T05:13:31;98970.41;;;0.81;75.53
74561;BME280;62979;55.720;37.606;2023-03-14T05:16:08;98959.31;;;0.93;75.35
74561;BME280;62979;55.720;37.606;2023-03-14T05:18:36;98949.00;;;0.93;75.37
74561;BME280;62979;55.720;37.606;2023-03-14T05:21:04;98955.03;;;0.95;75.47
74561;BME280;62979;55.720;37.606;2023-03-14T05:23:31;98951.59;;;1.01;75.19
74561;BME280;62979;55.720;37.606;2023-03-14T05:25:58;98950.75;;;1.13;74.90
74561;BME280;62979;55.720;37.606;2023-03-14T05:28:25;98938.75;;;1.18;74.75
74561;BME280;62979;55.720;37.606;2023-03-14T05:30:52;98955.03;;;1.21;74.49
74561;BME280;62979;55.720;37.606;2023-03-14T05:33:20;98979.94;;;1.24;74.48
74561;BME280;62979;55.720;37.606;2023-03-14T05:35:47;98955.06;;;1.35;73.93
74561;BME280;62979;55.720;37.606;2023-03-14T05:38:14;98954.19;;;1.36;73.96
74561;BME280;62979;55.720;37.606;2023-03-14T05:40:40;98969.66;;;1.47;73.48
74561;BME280;62979;55.720;37.606;2023-03-14T05:43:07;98991.16;;;1.49;72.99
74561;BME280;62979;55.720;37.606;2023-03-14T05:45:34;98970.53;;;1.52;72.83
74561;BME280;62979;55.720;37.606;2023-03-14T05:48:01;98963.66;;;1.60;72.39
74561;BME280;62979;55.720;37.606;2023-03-14T05:50:30;98965.38;;;1.66;72.12
74561;BME280;62979;55.720;37.606;2023-03-14T05:52:56;98975.66;;;1.70;71.72
74561;BME280;62979;55.720;37.606;2023-03-14T05:55:23;98962.78;;;1.74;71.17
74561;BME280;62979;55.720;37.606;2023-03-14T05:57:50;98966.22;;;1.79;70.83
74561;BME280;62979;55.720;37.606;2023-03-14T06:00:18;98973.09;;;1.86;70.83
74561;BME280;62979;55.720;37.606;2023-03-14T06:02:45;98975.66;;;1.84;70.77
74561;BME280;62979;55.720;37.606;2023-03-14T06:05:12;98979.94;;;1.99;70.61
74561;BME280;62979;55.720;37.606;2023-03-14T06:07:40;98972.22;;;1.96;70.12
74561;BME280;62979;55.720;37.606;2023-03-14T06:10:08;98985.94;;;2.06;70.26
74561;BME280;62979;55.720;37.606;2023-03-14T06:12:36;98974.75;;;2.14;70.09
74561;BME280;62979;55.720;37.606;2023-03-14T06:15:03;98985.94;;;2.23;69.50
74561;BME280;62979;55.720;37.606;2023-03-14T06:17:31;98970.44;;;2.23;68.90
74561;BME280;62979;55.720;37.606;2023-03-14T06:19:58;98985.91;;;2.32;69.02
74561;BME280;62979;55.720;37.606;2023-03-14T06:22:25;98965.25;;;2.35;68.59
74561;BME280;62979;55.720;37.606;2023-03-14T06:24:53;98966.09;;;2.42;68.30
74561;BME280;62979;55.720;37.606;2023-03-14T06:27:20;98954.06;;;2.36;68.18
74561;BME280;62979;55.720;37.606;2023-03-14T06:29:47;98951.44;;;2.44;68.06
74561;BME280;62979;55.720;37.606;2023-03-14T06:32:14;98970.38;;;2.47;67.64
74561;BME280;62979;55.720;37.606;2023-03-14T06:34:40;98960.91;;;2.45;67.45
74561;BME280;62979;55.720;37.606;2023-03-14T06:37:07;98968.63;;;2.46;67.39
74561;BME280;62979;55.720;37.606;2023-03-14T06:39:34;98939.41;;;2.43;66.85
74561;BME280;62979;55.720;37.606;2023-03-14T06:42:04;98959.16;;;2.48;67.08
74561;BME280;62979;55.720;37.606;2023-03-14T06:44:31;98963.47;;;2.52;67.22
74561;BME280;62979;55.720;37.606;2023-03-14T06:46:58;98951.44;;;2.45;67.34
74561;BME280;62979;55.720;37.606;2023-03-14T06:49:25;98930.81;;;2.45;66.89
74561;BME280;62979;55.720;37.606;2023-03-14T06:51:52;98937.63;;;2.60;66.69
74561;BME280;62979;55.720;37.606;2023-03-14T06:54:19;98929.84;;;2.66;66.45
74561;BME280;62979;55.720;37.606;2023-03-14T06:56:46;98946.19;;;2.68;66.06
74561;BME280;62979;55.720;37.606;2023-03-14T06:59:14;98946.19;;;2.70;66.13
74561;BME280;62979;55.720;37.606;2023-03-14T07:01:41;98923.78;;;2.75;65.61
74561;BME280;62979;55.720;37.606;2023-03-14T07:04:09;98957.28;;;2.84;66.07
74561;BME280;62979;55.720;37.606;2023-03-14T07:06:36;98931.47;;;2.86;65.49
74561;BME280;62979;55.720;37.606;2023-03-14T07:09:04;98941.72;;;3.01;65.41
74561;BME280;62979;55.720;37.606;2023-03-14T07:11:31;98942.53;;;3.08;65.58
74561;BME280;62979;55.720;37.606;2023-03-14T07:13:59;98933.84;;;3.16;65.20
74561;BME280;62979;55.720;37.606;2023-03-14T07:16:28;98945.88;;;3.19;65.09
74561;BME280;62979;55.720;37.606;2023-03-14T07:18:58;98943.31;;;3.20;65.13
74561;BME280;62979;55.720;37.606;2023-03-14T07:21:25;98948.44;;;3.25;64.78
74561;BME280;62979;55.720;37.606;2023-03-14T07:23:52;98951.88;;;3.26;64.26
74561;BME280;62979;55.720;37.606;2023-03-14T07:26:19;98957.00;;;3.33;64.65
74561;BME280;62979;55.720;37.606;2023-03-14T07:28:46;98966.47;;;3.34;64.00
74561;BME280;62979;55.720;37.606;2023-03-14T07:31:13;98967.31;;;3.33;64.24
74561;BME280;62979;55.720;37.606;2023-03-14T07:33:41;98956.94;;;3.41;64.37
74561;BME280;62979;55.720;37.606;2023-03-14T07:36:09;98968.09;;;3.48;64.42
74561;BME280;62979;55.720;37.606;2023-03-14T07:38:36;98959.47;;;3.47;64.06
74561;BME280;62979;55.720;37.606;2023-03-14T07:41:05;98974.94;;;3.55;63.31
74561;BME280;62979;55.720;37.606;2023-03-14T07:43:33;98958.53;;;3.57;63.15
74561;BME280;62979;55.720;37.606;2023-03-14T07:46:00;98956.81;;;3.56;63.47
74561;BME280;62979;55.720;37.606;2023-03-14T07:48:27;98958.53;;;3.56;63.21
74561;BME280;62979;55.720;37.606;2023-03-14T07:50:55;98965.44;;;3.57;62.93
74561;BME280;62979;55.720;37.606;2023-03-14T07:53:23;98954.28;;;3.52;63.16
74561;BME280;62979;55.720;37.606;2023-03-14T07:55:52;98961.13;;;3.57;63.10
74561;BME280;62979;55.720;37.606;2023-03-14T07:58:19;98974.88;;;3.61;63.26
74561;BME280;62979;55.720;37.606;2023-03-14T08:00:48;98957.63;;;3.63;63.41
74561;BME280;62979;55.720;37.606;2023-03-14T08:03:15;98964.47;;;3.67;63.44
74561;BME280;62979;55.720;37.606;2023-03-14T08:05:43;98961.81;;;3.75;63.53
74561;BME280;62979;55.720;37.606;2023-03-14T08:08:11;98967.84;;;3.78;64.14
74561;BME280;62979;55.720;37.606;2023-03-14T08:10:38;98980.75;;;3.81;64.83
74561;BME280;62979;55.720;37.606;2023-03-14T08:13:05;98978.19;;;3.75;65.35
74561;BME280;62979;55.720;37.606;2023-03-14T08:15:32;98990.25;;;3.79;66.02
74561;BME280;62979;55.720;37.606;2023-03-14T08:17:59;98982.47;;;3.79;66.22
74561;BME280;62979;55.720;37.606;2023-03-14T08:20:28;98981.56;;;3.88;66.15
74561;BME280;62979;55.720;37.606;2023-03-14T08:22:55;98957.44;;;3.84;65.84
74561;BME280;62979;55.720;37.606;2023-03-14T08:25:25;98985.00;;;3.89;66.10
74561;BME280;62979;55.720;37.606;2023-03-14T08:27:53;98979.75;;;3.96;66.64
74561;BME280;62979;55.720;37.606;2023-03-14T08:30:21;98981.47;;;3.94;67.07
74561;BME280;62979;55.720;37.606;2023-03-14T08:32:48;98978.78;;;4.06;67.16
74561;BME280;62979;55.720;37.606;2023-03-14T08:35:15;98973.69;;;4.00;67.00
74561;BME280;62979;55.720;37.606;2023-03-14T08:37:43;98964.13;;;4.04;66.60
74561;BME280;62979;55.720;37.606;2023-03-14T08:40:11;98975.34;;;4.07;66.15
74561;BME280;62979;55.720;37.606;2023-03-14T08:42:41;98965.00;;;4.06;65.77
74561;BME280;62979;55.720;37.606;2023-03-14T08:45:11;98980.38;;;4.18;65.10
74561;BME280;62979;55.720;37.606;2023-03-14T08:47:39;98982.84;;;4.31;64.84
74561;BME280;62979;55.720;37.606;2023-03-14T08:50:07;98963.03;;;4.28;63.42
74561;BME280;62979;55.720;37.606;2023-03-14T08:52:35;98986.25;;;4.36;62.63
74561;BME280;62979;55.720;37.606;2023-03-14T08:55:03;98987.97;;;4.37;62.33
74561;BME280;62979;55.720;37.606;2023-03-14T08:57:31;98979.22;;;4.47;61.85
74561;BME280;62979;55.720;37.606;2023-03-14T08:59:59;98972.25;;;4.54;61.53
74561;BME280;62979;55.720;37.606;2023-03-14T09:02:26;98976.50;;;4.58;60.85
74561;BME280;62979;55.720;37.606;2023-03-14T09:04:53;98954.09;;;4.57;60.31
74561;BME280;62979;55.720;37.606;2023-03-14T09:07:20;98971.34;;;4.56;60.21
74561;BME280;62979;55.720;37.606;2023-03-14T09:09:47;98942.94;;;4.50;60.04
74561;BME280;62979;55.720;37.606;2023-03-14T09:12:14;98984.22;;;4.62;59.35
74561;BME280;62979;55.720;37.606;2023-03-14T09:14:41;98946.25;;;4.61;59.17
74561;BME280;62979;55.720;37.606;2023-03-14T09:17:09;98971.22;;;4.68;59.54
74561;BME280;62979;55.720;37.606;2023-03-14T09:19:36;98952.88;;;4.84;59.51
74561;BME280;62979;55.720;37.606;2023-03-14T09:22:03;98966.69;;;4.83;58.95
74561;BME280;62979;55.720;37.606;2023-03-14T09:24:30;98964.03;;;4.89;58.98
74561;BME280;62979;55.720;37.606;2023-03-14T09:26:57;98967.41;;;4.94;58.65
74561;BME280;62979;55.720;37.606;2023-03-14T09:29:24;98961.38;;;4.95;58.61
74561;BME280;62979;55.720;37.606;2023-03-14T09:31:51;98971.72;;;4.95;58.05
74561;BME280;62979;55.720;37.606;2023-03-14T09:34:20;98980.38;;;4.92;58.63
74561;BME280;62979;55.720;37.606;2023-03-14T09:36:47;98989.09;;;4.87;58.74
74561;BME280;62979;55.720;37.606;2023-03-14T09:39:13;98970.91;;;4.91;59.06
74561;BME280;62979;55.720;37.606;2023-03-14T09:41:43;98965.72;;;4.90;59.11
74561;BME280;62979;55.720;37.606;2023-03-14T09:44:15;98976.81;;;5.01;59.05
74561;BME280;62979;55.720;37.606;2023-03-14T09:46:48;98955.13;;;5.07;58.32
74561;BME280;62979;55.720;37.606;2023-03-14T09:49:23;98952.69;;;4.98;58.23
74561;BME280;62979;55.720;37.606;2023-03-14T09:51:55;98959.34;;;5.15;58.10
74561;BME280;62979;55.720;37.606;2023-03-14T09:54:31;98960.13;;;5.21;57.78
74561;BME280;62979;55.720;37.606;2023-03-14T09:57:01;98965.31;;;5.22;57.31
74561;BME280;62979;55.720;37.606;2023-03-14T09:59:29;98960.13;;;5.22;57.32
74561;BME280;62979;55.720;37.606;2023-03-14T10:01:58;98950.66;;;5.18;57.68
74561;BME280;62979;55.720;37.606;2023-03-14T10:04:30;98971.16;;;5.33;57.35
74561;BME280;62979;55.720;37.606;2023-03-14T10:06:58;98956.44;;;5.37;57.40
74561;BME280;62979;55.720;37.606;2023-03-14T10:09:25;98970.19;;;5.42;57.74
74561;BME280;62979;55.720;37.606;2023-03-14T10:11:56;98975.31;;;5.47;58.20
74561;BME280;62979;55.720;37.606;2023-03-14T10:14:30;98951.06;;;5.49;58.55
74561;BME280;62979;55.720;37.606;2023-03-14T10:17:05;98947.50;;;5.55;58.32
74561;BME280;62979;55.720;37.606;2023-03-14T10:19:36;98935.25;;;5.65;57.74
74561;BME280;62979;55.720;37.606;2023-03-14T10:22:05;98934.31;;;5.67;57.48
74561;BME280;62979;55.720;37.606;2023-03-14T10:24:45;98933.50;;;5.65;57.57
74561;BME280;62979;55.720;37.606;2023-03-14T10:27:18;98923.03;;;5.71;57.20
74561;BME280;62979;55.720;37.606;2023-03-14T10:29:52;98920.44;;;5.71;56.67
74561;BME280;62979;55.720;37.606;2023-03-14T10:32:22;98923.13;;;5.65;56.88
74561;BME280;62979;55.720;37.606;2023-03-14T10:35:07;98934.38;;;5.66;57.11
74561;BME280;62979;55.720;37.606;2023-03-14T10:37:53;98946.38;;;5.70;57.69
74561;BME280;62979;55.720;37.606;2023-03-14T10:40:26;98934.38;;;5.66;57.29
74561;BME280;62979;55.720;37.606;2023-03-14T10:42:58;98930.75;;;5.74;57.21
74561;BME280;62979;55.720;37.606;2023-03-14T10:45:33;98937.47;;;5.86;56.87
74561;BME280;62979;55.720;37.606;2023-03-14T10:48:17;98952.91;;;5.95;57.35
74561;BME280;62979;55.720;37.606;2023-03-14T10:50:54;98917.47;;;5.93;57.38
74561;BME280;62979;55.720;37.606;2023-03-14T10:53:24;98920.88;;;5.96;56.72
74561;BME280;62979;55.720;37.606;2023-03-14T10:55:51;98918.22;;;5.99;56.40
74561;BME280;62979;55.720;37.606;2023-03-14T10:58:23;98940.72;;;6.00;56.12
74561;BME280;62979;55.720;37.606;2023-03-14T11:00:57;98925.00;;;6.08;55.75
74561;BME280;62979;55.720;37.606;2023-03-14T11:03:37;98908.16;;;6.29;55.57
74561;BME280;62979;55.720;37.606;2023-03-14T11:06:14;98907.69;;;6.51;54.93
74561;BME280;62979;55.720;37.606;2023-03-14T11:08:54;98895.09;;;6.74;53.83
74561;BME280;62979;55.720;37.606;2023-03-14T11:11:29;98906.53;;;7.04;53.55
74561;BME280;62979;55.720;37.606;2023-03-14T11:14:06;98910.59;;;7.16;52.68
74561;BME280;62979;55.720;37.606;2023-03-14T11:16:51;98898.13;;;7.31;51.85
74561;BME280;62979;55.720;37.606;2023-03-14T11:19:32;98916.88;;;7.43;51.17
74561;BME280;62979;55.720;37.606;2023-03-14T11:22:18;98893.44;;;7.45;51.18
74561;BME280;62979;55.720;37.606;2023-03-14T11:25:06;98923.03;;;7.41;50.51
74561;BME280;62979;55.720;37.606;2023-03-14T11:27:43;98903.34;;;7.29;50.94
74561;BME280;62979;55.720;37.606;2023-03-14T11:30:19;98911.41;;;7.18;50.75
74561;BME280;62979;55.720;37.606;2023-03-14T11:32:56;98919.13;;;7.21;51.16
74561;BME280;62979;55.720;37.606;2023-03-14T11:35:30;98913.72;;;7.31;51.20
74561;BME280;62979;55.720;37.606;2023-03-14T11:38:13;98913.91;;;7.24;50.97
74561;BME280;62979;55.720;37.606;2023-03-14T11:40:46;98914.03;;;7.17;50.72
74561;BME280;62979;55.720;37.606;2023-03-14T11:43:20;98918.56;;;7.10;50.52
74561;BME280;62979;55.720;37.606;2023-03-14T11:45:58;98924.69;;;7.07;50.55
74561;BME280;62979;55.720;37.606;2023-03-14T11:48:36;98917.94;;;6.99;51.07
74561;BME280;62979;55.720;37.606;2023-03-14T11:51:17;98924.78;;;7.03;50.63
74561;BME280;62979;55.720;37.606;2023-03-14T11:53:57;98910.88;;;7.04;50.92
74561;BME280;62979;55.720;37.606;2023-03-14T11:56:33;98913.69;;;6.95;50.84
74561;BME280;62979;55.720;37.606;2023-03-14T11:59:07;98927.47;;;7.00;51.17
74561;BME280;62979;55.720;37.606;2023-03-14T12:01:52;98928.31;;;6.99;50.80
74561;BME280;62979;55.720;37.606;2023-03-14T12:04:31;98934.47;;;6.95;50.62
74561;BME280;62979;55.720;37.606;2023-03-14T12:07:14;98923.09;;;7.00;50.49
74561;BME280;62979;55.720;37.606;2023-03-14T12:09:48;98929.06;;;7.04;50.83
74561;BME280;62979;55.720;37.606;2023-03-14T12:12:19;98932.50;;;7.06;50.90
74561;BME280;62979;55.720;37.606;2023-03-14T12:14:54;98940.44;;;7.00;50.54
74561;BME280;62979;55.720;37.606;2023-03-14T12:17:26;98928.41;;;6.96;50.64
74561;BME280;62979;55.720;37.606;2023-03-14T12:20:03;98933.44;;;7.02;50.61
74561;BME280;62979;55.720;37.606;2023-03-14T12:22:35;98940.50;;;6.97;50.13
74561;BME280;62979;55.720;37.606;2023-03-14T12:25:15;98934.28;;;7.04;50.26
74561;BME280;62979;55.720;37.606;2023-03-14T12:27:48;98924.78;;;7.03;50.42
74561;BME280;62979;55.720;37.606;2023-03-14T12:30:32;98933.63;;;6.94;50.31
74561;BME280;62979;55.720;37.606;2023-03-14T12:33:30;98937.72;;;7.04;50.22
74561;BME280;62979;55.720;37.606;2023-03-14T12:36:12;98960.34;;;7.01;50.38
74561;BME280;62979;55.720;37.606;2023-03-14T12:39:22;98956.16;;;6.94;50.45
74561;BME280;62979;55.720;37.606;2023-03-14T12:42:05;98952.81;;;6.89;50.89
74561;BME280;62979;55.720;37.606;2023-03-14T12:44:47;98965.94;;;6.82;52.48
74561;BME280;62979;55.720;37.606;2023-03-14T12:47:56;98959.84;;;6.83;52.97
74561;BME280;62979;55.720;37.606;2023-03-14T12:50:36;98962.56;;;6.77;53.69
74561;BME280;62979;55.720;37.606;2023-03-14T12:53:38;98969.84;;;6.60;54.71
74561;BME280;62979;55.720;37.606;2023-03-14T12:56:28;98960.47;;;6.53;56.28
74561;BME280;62979;55.720;37.606;2023-03-14T12:59:30;98956.34;;;6.44;56.70
74561;BME280;62979;55.720;37.606;2023-03-14T13:02:18;98952.97;;;6.39;57.43
74561;BME280;62979;55.720;37.606;2023-03-14T13:04:50;98941.88;;;6.31;57.14
74561;BME280;62979;55.720;37.606;2023-03-14T13:07:34;98926.50;;;6.20;55.80
74561;BME280;62979;55.720;37.606;2023-03-14T13:10:24;98952.41;;;6.21;55.97
74561;BME280;62979;55.720;37.606;2023-03-14T13:12:54;98942.00;;;6.23;54.07
74561;BME280;62979;55.720;37.606;2023-03-14T13:15:31;98947.28;;;6.20;52.77